AIRPORT_AIRPORT_METAR
METAR FOR LFRO
ADDS - METARS form results

(1952 UTC 25 October 2020)
Data provider http://aviationweather.gov/metar/data/
 
METAR text: LFRO 251930Z AUTO 22010KT 9999 FEW037 09/05 Q1001
Conditions at: LFRO (LANNION/SERVEL , FR) observed 1930 UTC 25 October 2020
Temperature: 9.0°C (48°F)
Dewpoint: 5.0°C (41°F) [RH = 76%]
Pressure (altimeter): 29.56 inches Hg (1001.0 mb)
Winds: from the SW (220 degrees) at 12 MPH (10 knots; 5.1 m/s)
Visibility: 6 or more miles (10+ km)
Ceiling: at least 12,000 feet AGL
Clouds: few clouds at 3700 feet AGL
Weather: no significant weather observed at this time

METAR text: LFRO 251900Z AUTO 23013KT 9999 FEW025 SCT062 10/06 Q1001
Conditions at: LFRO (LANNION/SERVEL , FR) observed 1900 UTC 25 October 2020
Temperature: 10.0°C (50°F)
Dewpoint: 6.0°C (43°F) [RH = 76%]
Pressure (altimeter): 29.56 inches Hg (1001.0 mb)
Winds: from the SW (230 degrees) at 15 MPH (13 knots; 6.7 m/s)
Visibility: 6 or more miles (10+ km)
Ceiling: at least 12,000 feet AGL
Clouds: few clouds at 2500 feet AGL
scattered clouds at 6200 feet AGL
Weather: no significant weather observed at this time

 AIRPORT_AIRPORT_MAP

 AIRPORT_RUNWAY_INFO
AIRPORT_RUNWAY 11 AIRPORT_RUNWAY_LENGTH 5577 ft AIRPORT_RUNWAY_WIDTH 148 ft
AIRPORT_RUNWAY_ELEVATION 277 ft AIRPORT_RUNWAY_THRESHOLD 754 ft AIRPORT_RUNWAY_HEADING 107
AIRPORT_RUNWAY 29 AIRPORT_RUNWAY_LENGTH 5577 ft AIRPORT_RUNWAY_WIDTH 148 ft
AIRPORT_RUNWAY_ELEVATION 285 ft AIRPORT_RUNWAY_THRESHOLD 590 ft AIRPORT_RUNWAY_HEADING 287

 AIRPORT_AIRPORT_FREQUENCIES
AIRPORT_AIRPORT_NAVAIDS_TYPE TWR AIRPORT_AIRPORT_NAVAIDS_NAME TWR AIRPORT_AIRPORT_NAVAIDS_FREQ 118.4 MHZ

 AIRPORT_AIRPORT_NAVAIDS
AIRPORT_AIRPORT_NAVAIDS_TYPE NDB AIRPORT_AIRPORT_NAVAIDS_NAME Lannion AIRPORT_AIRPORT_NAVAIDS_FREQ 345 KHZ



Copyright © 2005-2020 - Virtuel Air Alsace - Tous droits réservés